sensor_id;sensor_type;location;lat;lon;timestamp;pressure;altitude;pressure_sealevel;temperature
12126;BMP180;6126;57.908;16.490;2022-10-13T00:00:46;102028.09;;;9.12
12126;BMP180;6126;57.908;16.490;2022-10-13T00:03:12;102018.53;;;9.11
12126;BMP180;6126;57.908;16.490;2022-10-13T00:05:44;102016.81;;;9.10
12126;BMP180;6126;57.908;16.490;2022-10-13T00:08:12;102011.59;;;9.10
12126;BMP180;6126;57.908;16.490;2022-10-13T00:10:39;102018.56;;;9.09
12126;BMP180;6126;57.908;16.490;2022-10-13T00:13:07;102010.75;;;9.09
12126;BMP180;6126;57.908;16.490;2022-10-13T00:15:38;102016.81;;;9.10
12126;BMP180;6126;57.908;16.490;2022-10-13T00:18:05;102015.06;;;9.09
12126;BMP180;6126;57.908;16.490;2022-10-13T00:20:32;102010.75;;;9.09
12126;BMP180;6126;57.908;16.490;2022-10-13T00:22:58;102015.06;;;9.09
12126;BMP180;6126;57.908;16.490;2022-10-13T00:25:23;102008.13;;;9.09
12126;BMP180;6126;57.908;16.490;2022-10-13T00:27:49;102014.22;;;9.10
12126;BMP180;6126;57.908;16.490;2022-10-13T00:30:15;102018.56;;;9.09
12126;BMP180;6126;57.908;16.490;2022-10-13T00:32:41;102005.53;;;9.08
12126;BMP180;6126;57.908;16.490;2022-10-13T00:35:08;102008.09;;;9.11
12126;BMP180;6126;57.908;16.490;2022-10-13T00:37:34;102003.72;;;9.11
12126;BMP180;6126;57.908;16.490;2022-10-13T00:39:59;102013.31;;;9.11
12126;BMP180;6126;57.908;16.490;2022-10-13T00:42:25;102010.69;;;9.12
12126;BMP180;6126;57.908;16.490;2022-10-13T00:45:22;102005.47;;;9.12
12126;BMP180;6126;57.908;16.490;2022-10-13T00:47:53;102004.56;;;9.15
12126;BMP180;6126;57.908;16.490;2022-10-13T00:50:38;102005.41;;;9.15
12126;BMP180;6126;57.908;16.490;2022-10-13T00:53:06;102007.13;;;9.16
12126;BMP180;6126;57.908;16.490;2022-10-13T00:55:36;101999.28;;;9.18
12126;BMP180;6126;57.908;16.490;2022-10-13T00:58:07;102001.84;;;9.21
12126;BMP180;6126;57.908;16.490;2022-10-13T01:00:34;102006.09;;;9.24
12126;BMP180;6126;57.908;16.490;2022-10-13T01:03:01;102005.19;;;9.27
12126;BMP180;6126;57.908;16.490;2022-10-13T01:05:29;101991.22;;;9.29
12126;BMP180;6126;57.908;16.490;2022-10-13T01:07:56;101997.28;;;9.33
12126;BMP180;6126;57.908;16.490;2022-10-13T01:16:30;101997.16;;;9.39
12126;BMP180;6126;57.908;16.490;2022-10-13T01:28:19;101984.03;;;9.42
12126;BMP180;6126;57.908;16.490;2022-10-13T01:31:14;101978.81;;;9.42
12126;BMP180;6126;57.908;16.490;2022-10-13T01:37:08;101974.47;;;9.42
12126;BMP180;6126;57.908;16.490;2022-10-13T01:45:32;101974.53;;;9.39
12126;BMP180;6126;57.908;16.490;2022-10-13T01:48:00;101975.44;;;9.37
12126;BMP180;6126;57.908;16.490;2022-10-13T01:50:28;101974.59;;;9.36
12126;BMP180;6126;57.908;16.490;2022-10-13T01:53:00;101974.59;;;9.35
12126;BMP180;6126;57.908;16.490;2022-10-13T01:55:26;101965.06;;;9.35
12126;BMP180;6126;57.908;16.490;2022-10-13T01:57:54;101961.53;;;9.36
12126;BMP180;6126;57.908;16.490;2022-10-13T02:00:21;101965.00;;;9.37
12126;BMP180;6126;57.908;16.490;2022-10-13T02:03:10;101961.53;;;9.38
12126;BMP180;6126;57.908;16.490;2022-10-13T02:06:12;101965.84;;;9.39
12126;BMP180;6126;57.908;16.490;2022-10-13T02:11:21;101969.28;;;9.41
12126;BMP180;6126;57.908;16.490;2022-10-13T02:16:34;101964.88;;;9.43
12126;BMP180;6126;57.908;16.490;2022-10-13T02:19:03;101976.19;;;9.43
12126;BMP180;6126;57.908;16.490;2022-10-13T02:21:31;101972.69;;;9.44
12126;BMP180;6126;57.908;16.490;2022-10-13T02:23:57;101974.44;;;9.44
12126;BMP180;6126;57.908;16.490;2022-10-13T02:26:24;101974.41;;;9.45
12126;BMP180;6126;57.908;16.490;2022-10-13T02:28:50;101972.66;;;9.46
12126;BMP180;6126;57.908;16.490;2022-10-13T02:31:16;101971.78;;;9.47
12126;BMP180;6126;57.908;16.490;2022-10-13T02:33:42;101976.09;;;9.48
12126;BMP180;6126;57.908;16.490;2022-10-13T02:36:08;101964.78;;;9.47
12126;BMP180;6126;57.908;16.490;2022-10-13T02:38:34;101963.03;;;9.48
12126;BMP180;6126;57.908;16.490;2022-10-13T02:41:00;101965.69;;;9.46
12126;BMP180;6126;57.908;16.490;2022-10-13T02:43:28;101962.19;;;9.47
12126;BMP180;6126;57.908;16.490;2022-10-13T02:45:54;101968.31;;;9.46
12126;BMP180;6126;57.908;16.490;2022-10-13T02:48:20;101963.09;;;9.45
12126;BMP180;6126;57.908;16.490;2022-10-13T02:50:46;101958.75;;;9.45
12126;BMP180;6126;57.908;16.490;2022-10-13T02:53:12;101951.81;;;9.44
12126;BMP180;6126;57.908;16.490;2022-10-13T02:55:38;101953.56;;;9.44
12126;BMP180;6126;57.908;16.490;2022-10-13T02:58:04;101955.31;;;9.43
12126;BMP180;6126;57.908;16.490;2022-10-13T03:00:30;101959.66;;;9.43
12126;BMP180;6126;57.908;16.490;2022-10-13T03:02:56;101948.38;;;9.42
12126;BMP180;6126;57.908;16.490;2022-10-13T03:05:21;101950.16;;;9.40
12126;BMP180;6126;57.908;16.490;2022-10-13T03:07:47;101948.44;;;9.39
12126;BMP180;6126;57.908;16.490;2022-10-13T03:10:15;101952.00;;;9.35
12126;BMP180;6126;57.908;16.490;2022-10-13T03:12:40;101956.38;;;9.33
12126;BMP180;6126;57.908;16.490;2022-10-13T03:15:07;101950.31;;;9.31
12126;BMP180;6126;57.908;16.490;2022-10-13T03:17:33;101956.47;;;9.29
12126;BMP180;6126;57.908;16.490;2022-10-13T03:19:59;101962.59;;;9.26
12126;BMP180;6126;57.908;16.490;2022-10-13T03:22:25;101958.34;;;9.21
12126;BMP180;6126;57.908;16.490;2022-10-13T03:24:51;101947.13;;;9.18
12126;BMP180;6126;57.908;16.490;2022-10-13T03:27:16;101955.81;;;9.17
12126;BMP180;6126;57.908;16.490;2022-10-13T03:29:42;101948.06;;;9.14
12126;BMP180;6126;57.908;16.490;2022-10-13T03:32:08;101951.53;;;9.14
12126;BMP180;6126;57.908;16.490;2022-10-13T03:34:34;101941.13;;;9.13
12126;BMP180;6126;57.908;16.490;2022-10-13T03:37:00;101939.41;;;9.12
12126;BMP180;6126;57.908;16.490;2022-10-13T03:39:26;101934.22;;;9.10
12126;BMP180;6126;57.908;16.490;2022-10-13T03:41:52;101930.75;;;9.10
12126;BMP180;6126;57.908;16.490;2022-10-13T03:44:17;101930.78;;;9.08
12126;BMP180;6126;57.908;16.490;2022-10-13T03:46:43;101930.78;;;9.08
12126;BMP180;6126;57.908;16.490;2022-10-13T03:49:10;101924.69;;;9.08
12126;BMP180;6126;57.908;16.490;2022-10-13T03:51:37;101923.81;;;9.09
12126;BMP180;6126;57.908;16.490;2022-10-13T03:54:03;101923.00;;;9.07
12126;BMP180;6126;57.908;16.490;2022-10-13T03:56:28;101929.13;;;9.04
12126;BMP180;6126;57.908;16.490;2022-10-13T03:58:58;101927.44;;;9.02
12126;BMP180;6126;57.908;16.490;2022-10-13T04:01:28;101917.06;;;8.99
12126;BMP180;6126;57.908;16.490;2022-10-13T04:03:55;101917.06;;;8.97
12126;BMP180;6126;57.908;16.490;2022-10-13T04:06:23;101921.50;;;8.94
12126;BMP180;6126;57.908;16.490;2022-10-13T04:08:50;101929.31;;;8.92
12126;BMP180;6126;57.908;16.490;2022-10-13T04:11:17;101929.38;;;8.91
12126;BMP180;6126;57.908;16.490;2022-10-13T04:13:43;101921.56;;;8.88
12126;BMP180;6126;57.908;16.490;2022-10-13T04:16:23;101919.94;;;8.84
12126;BMP180;6126;57.908;16.490;2022-10-13T04:18:59;101913.03;;;8.80
12126;BMP180;6126;57.908;16.490;2022-10-13T04:21:26;101914.84;;;8.77
12126;BMP180;6126;57.908;16.490;2022-10-13T04:23:57;101920.13;;;8.72
12126;BMP180;6126;57.908;16.490;2022-10-13T04:26:27;101911.50;;;8.70
12126;BMP180;6126;57.908;16.490;2022-10-13T04:28:54;101908.94;;;8.67
12126;BMP180;6126;57.908;16.490;2022-10-13T04:31:21;101902.91;;;8.65
12126;BMP180;6126;57.908;16.490;2022-10-13T04:33:48;101910.75;;;8.62
12126;BMP180;6126;57.908;16.490;2022-10-13T04:36:15;101905.56;;;8.60
12126;BMP180;6126;57.908;16.490;2022-10-13T04:38:42;101894.34;;;8.58
12126;BMP180;6126;57.908;16.490;2022-10-13T04:41:13;101893.44;;;8.59
12126;BMP180;6126;57.908;16.490;2022-10-13T04:43:39;101894.34;;;8.58
12126;BMP180;6126;57.908;16.490;2022-10-13T04:46:16;101896.09;;;8.56
12126;BMP180;6126;57.908;16.490;2022-10-13T04:48:44;101877.94;;;8.51
12126;BMP180;6126;57.908;16.490;2022-10-13T04:51:14;101880.66;;;8.47
12126;BMP180;6126;57.908;16.490;2022-10-13T04:53:41;101885.88;;;8.44
12126;BMP180;6126;57.908;16.490;2022-10-13T04:56:16;101883.28;;;8.44
12126;BMP180;6126;57.908;16.490;2022-10-13T04:58:44;101885.88;;;8.45
12126;BMP180;6126;57.908;16.490;2022-10-13T05:01:21;101872.78;;;8.48
12126;BMP180;6126;57.908;16.490;2022-10-13T05:03:54;101864.91;;;8.51
12126;BMP180;6126;57.908;16.490;2022-10-13T05:06:27;101863.13;;;8.55
12126;BMP180;6126;57.908;16.490;2022-10-13T05:08:54;101879.63;;;8.55
12126;BMP180;6126;57.908;16.490;2022-10-13T05:11:20;101877.81;;;8.59
12126;BMP180;6126;57.908;16.490;2022-10-13T05:13:48;101884.78;;;8.58
12126;BMP180;6126;57.908;16.490;2022-10-13T05:16:16;101869.09;;;8.60
12126;BMP180;6126;57.908;16.490;2022-10-13T05:18:43;101868.22;;;8.61
12126;BMP180;6126;57.908;16.490;2022-10-13T05:21:22;101867.34;;;8.61
12126;BMP180;6126;57.908;16.490;2022-10-13T05:23:49;101869.06;;;8.62
12126;BMP180;6126;57.908;16.490;2022-10-13T05:26:19;101866.47;;;8.62
12126;BMP180;6126;57.908;16.490;2022-10-13T05:28:45;101865.56;;;8.62
12126;BMP180;6126;57.908;16.490;2022-10-13T05:31:23;101866.47;;;8.62
12126;BMP180;6126;57.908;16.490;2022-10-13T05:33:50;101865.56;;;8.62
12126;BMP180;6126;57.908;16.490;2022-10-13T05:36:29;101865.56;;;8.62
12126;BMP180;6126;57.908;16.490;2022-10-13T05:39:02;101869.09;;;8.60
12126;BMP180;6126;57.908;16.490;2022-10-13T05:41:29;101874.38;;;8.57
12126;BMP180;6126;57.908;16.490;2022-10-13T05:43:59;101870.91;;;8.56
12126;BMP180;6126;57.908;16.490;2022-10-13T05:46:26;101871.69;;;8.60
12126;BMP180;6126;57.908;16.490;2022-10-13T05:48:52;101871.69;;;8.62
12126;BMP180;6126;57.908;16.490;2022-10-13T05:51:31;101869.88;;;8.64
12126;BMP180;6126;57.908;16.490;2022-10-13T05:54:22;101859.44;;;8.67
12126;BMP180;6126;57.908;16.490;2022-10-13T05:56:56;101857.63;;;8.69
12126;BMP180;6126;57.908;16.490;2022-10-13T05:59:26;101857.56;;;8.72
12126;BMP180;6126;57.908;16.490;2022-10-13T06:01:53;101864.47;;;8.76
12126;BMP180;6126;57.908;16.490;2022-10-13T06:04:25;101862.72;;;8.77
12126;BMP180;6126;57.908;16.490;2022-10-13T06:06:54;101860.03;;;8.80
12126;BMP180;6126;57.908;16.490;2022-10-13T06:09:20;101868.72;;;8.82
12126;BMP180;6126;57.908;16.490;2022-10-13T06:11:46;101861.72;;;8.84
12126;BMP180;6126;57.908;16.490;2022-10-13T06:14:12;101870.34;;;8.87
12126;BMP180;6126;57.908;16.490;2022-10-13T06:16:38;101863.34;;;8.89
12126;BMP180;6126;57.908;16.490;2022-10-13T06:19:04;101864.19;;;8.91
12126;BMP180;6126;57.908;16.490;2022-10-13T06:21:33;101861.53;;;8.92
12126;BMP180;6126;57.908;16.490;2022-10-13T06:23:59;101866.75;;;8.94
12126;BMP180;6126;57.908;16.490;2022-10-13T06:26:25;101869.28;;;8.97
12126;BMP180;6126;57.908;16.490;2022-10-13T06:28:51;101869.25;;;8.98
12126;BMP180;6126;57.908;16.490;2022-10-13T06:31:17;101859.66;;;9.00
12126;BMP180;6126;57.908;16.490;2022-10-13T06:33:43;101867.41;;;9.05
12126;BMP180;6126;57.908;16.490;2022-10-13T06:36:09;101862.13;;;9.06
12126;BMP180;6126;57.908;16.490;2022-10-13T06:38:35;101858.59;;;9.09
12126;BMP180;6126;57.908;16.490;2022-10-13T06:41:03;101856.84;;;9.11
12126;BMP180;6126;57.908;16.490;2022-10-13T06:43:30;101858.50;;;9.15
12126;BMP180;6126;57.908;16.490;2022-10-13T06:46:00;101850.63;;;9.18
12126;BMP180;6126;57.908;16.490;2022-10-13T06:48:27;101857.53;;;9.19
12126;BMP180;6126;57.908;16.490;2022-10-13T06:50:53;101846.25;;;9.20
12126;BMP180;6126;57.908;16.490;2022-10-13T06:53:19;101844.44;;;9.22
12126;BMP180;6126;57.908;16.490;2022-10-13T06:55:45;101851.41;;;9.23
12126;BMP180;6126;57.908;16.490;2022-10-13T06:58:11;101846.13;;;9.24
12126;BMP180;6126;57.908;16.490;2022-10-13T07:00:40;101853.94;;;9.25
12126;BMP180;6126;57.908;16.490;2022-10-13T07:03:06;101847.81;;;9.26
12126;BMP180;6126;57.908;16.490;2022-10-13T07:05:32;101842.59;;;9.28
12126;BMP180;6126;57.908;16.490;2022-10-13T07:07:58;101845.13;;;9.29
12126;BMP180;6126;57.908;16.490;2022-10-13T07:10:24;101850.31;;;9.32
12126;BMP180;6126;57.908;16.490;2022-10-13T07:12:49;101850.25;;;9.35
12126;BMP180;6126;57.908;16.490;2022-10-13T07:15:15;101844.13;;;9.36
12126;BMP180;6126;57.908;16.490;2022-10-13T07:17:41;101848.38;;;9.42
12126;BMP180;6126;57.908;16.490;2022-10-13T07:20:07;101843.06;;;9.45
12126;BMP180;6126;57.908;16.490;2022-10-13T07:22:33;101841.28;;;9.48
12126;BMP180;6126;57.908;16.490;2022-10-13T07:24:59;101841.22;;;9.51
12126;BMP180;6126;57.908;16.490;2022-10-13T07:27:26;101841.16;;;9.52
12126;BMP180;6126;57.908;16.490;2022-10-13T07:29:52;101837.63;;;9.55
12126;BMP180;6126;57.908;16.490;2022-10-13T07:32:18;101838.47;;;9.57
12126;BMP180;6126;57.908;16.490;2022-10-13T07:34:44;101834.06;;;9.59
12126;BMP180;6126;57.908;16.490;2022-10-13T07:37:10;101840.13;;;9.61
12126;BMP180;6126;57.908;16.490;2022-10-13T07:39:35;101836.56;;;9.63
12126;BMP180;6126;57.908;16.490;2022-10-13T07:42:01;101827.78;;;9.67
12126;BMP180;6126;57.908;16.490;2022-10-13T07:44:27;101834.63;;;9.71
12126;BMP180;6126;57.908;16.490;2022-10-13T07:46:53;101836.31;;;9.75
12126;BMP180;6126;57.908;16.490;2022-10-13T07:49:19;101834.47;;;9.79
12126;BMP180;6126;57.908;16.490;2022-10-13T07:51:44;101827.47;;;9.81
12126;BMP180;6126;57.908;16.490;2022-10-13T07:54:10;101822.16;;;9.85
12126;BMP180;6126;57.908;16.490;2022-10-13T07:56:36;101822.06;;;9.89
12126;BMP180;6126;57.908;16.490;2022-10-13T07:59:02;101828.03;;;9.94
12126;BMP180;6126;57.908;16.490;2022-10-13T08:01:30;101831.47;;;9.98
12126;BMP180;6126;57.908;16.490;2022-10-13T08:03:56;101830.44;;;10.03
12126;BMP180;6126;57.908;16.490;2022-10-13T08:06:22;101819.94;;;10.06
12126;BMP180;6126;57.908;16.490;2022-10-13T08:08:48;101819.84;;;10.09
12126;BMP180;6126;57.908;16.490;2022-10-13T08:11:16;101823.22;;;10.14
12126;BMP180;6126;57.908;16.490;2022-10-13T08:13:48;101811.78;;;10.18
12126;BMP180;6126;57.908;16.490;2022-10-13T08:16:14;101808.22;;;10.22
12126;BMP180;6126;57.908;16.490;2022-10-13T08:18:40;101814.19;;;10.27
12126;BMP180;6126;57.908;16.490;2022-10-13T08:21:12;101812.25;;;10.33
12126;BMP180;6126;57.908;16.490;2022-10-13T08:23:38;101812.16;;;10.38
12126;BMP180;6126;57.908;16.490;2022-10-13T08:26:04;101806.00;;;10.40
12126;BMP180;6126;57.908;16.490;2022-10-13T08:28:30;101808.50;;;10.45
12126;BMP180;6126;57.908;16.490;2022-10-13T08:30:56;101804.91;;;10.48
12126;BMP180;6126;57.908;16.490;2022-10-13T08:33:24;101809.16;;;10.52
12126;BMP180;6126;57.908;16.490;2022-10-13T08:35:51;101808.16;;;10.56
12126;BMP180;6126;57.908;16.490;2022-10-13T08:38:17;101807.19;;;10.60
12126;BMP180;6126;57.908;16.490;2022-10-13T08:40:49;101807.03;;;10.66
12126;BMP180;6126;57.908;16.490;2022-10-13T08:43:20;101810.38;;;10.71
12126;BMP180;6126;57.908;16.490;2022-10-13T08:45:51;101799.81;;;10.76
12126;BMP180;6126;57.908;16.490;2022-10-13T08:48:25;101797.94;;;10.80
12126;BMP180;6126;57.908;16.490;2022-10-13T08:50:57;101803.00;;;10.86
12126;BMP180;6126;57.908;16.490;2022-10-13T08:53:37;101796.72;;;10.92
12126;BMP180;6126;57.908;16.490;2022-10-13T08:56:24;101806.13;;;10.99
12126;BMP180;6126;57.908;16.490;2022-10-13T08:58:53;101796.31;;;11.07
12126;BMP180;6126;57.908;16.490;2022-10-13T09:01:35;101796.03;;;11.15
12126;BMP180;6126;57.908;16.490;2022-10-13T09:04:23;101784.59;;;11.19
12126;BMP180;6126;57.908;16.490;2022-10-13T09:09:36;101784.34;;;11.27
12126;BMP180;6126;57.908;16.490;2022-10-13T09:12:04;101785.13;;;11.30
12126;BMP180;6126;57.908;16.490;2022-10-13T09:14:34;101774.56;;;11.33
12126;BMP180;6126;57.908;16.490;2022-10-13T09:17:17;101780.53;;;11.38
12126;BMP180;6126;57.908;16.490;2022-10-13T09:22:41;101770.63;;;11.49
12126;BMP180;6126;57.908;16.490;2022-10-13T09:35:46;101767.38;;;11.68
12126;BMP180;6126;57.908;16.490;2022-10-13T09:38:21;101768.16;;;11.71
12126;BMP180;6126;57.908;16.490;2022-10-13T09:41:12;101759.28;;;11.75
12126;BMP180;6126;57.908;16.490;2022-10-13T09:49:43;101756.31;;;11.86
12126;BMP180;6126;57.908;16.490;2022-10-13T09:54:49;101753.47;;;11.93
12126;BMP180;6126;57.908;16.490;2022-10-13T09:57:44;101750.69;;;11.98
12126;BMP180;6126;57.908;16.490;2022-10-13T10:02:58;101744.41;;;12.03
12126;BMP180;6126;57.908;16.490;2022-10-13T10:08:25;101736.22;;;12.12
12126;BMP180;6126;57.908;16.490;2022-10-13T10:10:53;101730.00;;;12.16
12126;BMP180;6126;57.908;16.490;2022-10-13T10:13:20;101729.88;;;12.19
12126;BMP180;6126;57.908;16.490;2022-10-13T10:18:54;101719.19;;;12.25
12126;BMP180;6126;57.908;16.490;2022-10-13T10:22:09;101715.44;;;12.32
12126;BMP180;6126;57.908;16.490;2022-10-13T10:27:39;101709.06;;;12.38
12126;BMP180;6126;57.908;16.490;2022-10-13T10:30:18;101692.34;;;12.42
12126;BMP180;6126;57.908;16.490;2022-10-13T10:33:08;101697.47;;;12.45
12126;BMP180;6126;57.908;16.490;2022-10-13T10:35:58;101688.59;;;12.49
12126;BMP180;6126;57.908;16.490;2022-10-13T10:38:38;101688.47;;;12.52
12126;BMP180;6126;57.908;16.490;2022-10-13T10:44:06;101695.31;;;12.56
12126;BMP180;6126;57.908;16.490;2022-10-13T10:46:39;101688.22;;;12.60
12126;BMP180;6126;57.908;16.490;2022-10-13T10:49:29;101675.03;;;12.61
12126;BMP180;6126;57.908;16.490;2022-10-13T10:51:58;101677.47;;;12.65
12126;BMP180;6126;57.908;16.490;2022-10-13T10:54:55;101672.16;;;12.67
12126;BMP180;6126;57.908;16.490;2022-10-13T10:57:32;101671.19;;;12.69
12126;BMP180;6126;57.908;16.490;2022-10-13T11:00:14;101665.00;;;12.72
12126;BMP180;6126;57.908;16.490;2022-10-13T11:06:04;101651.75;;;12.76
12126;BMP180;6126;57.908;16.490;2022-10-13T11:08:47;101648.06;;;12.80
12126;BMP180;6126;57.908;16.490;2022-10-13T11:19:37;101635.47;;;13.33
12126;BMP180;6126;57.908;16.490;2022-10-13T11:35:23;101612.00;;;13.29
12126;BMP180;6126;57.908;16.490;2022-10-13T11:46:26;101583.66;;;13.37
12126;BMP180;6126;57.908;16.490;2022-10-13T11:55:10;101574.50;;;13.47
12126;BMP180;6126;57.908;16.490;2022-10-13T11:57:37;101568.00;;;13.55
12126;BMP180;6126;57.908;16.490;2022-10-13T12:00:03;101564.94;;;13.65
12126;BMP180;6126;57.908;16.490;2022-10-13T12:02:29;101558.31;;;13.77
12126;BMP180;6126;57.908;16.490;2022-10-13T12:07:48;101545.69;;;14.04
12126;BMP180;6126;57.908;16.490;2022-10-13T12:10:36;101533.28;;;14.08
12126;BMP180;6126;57.908;16.490;2022-10-13T12:13:03;101537.53;;;14.10
12126;BMP180;6126;57.908;16.490;2022-10-13T12:15:41;101538.56;;;14.08
12126;BMP180;6126;57.908;16.490;2022-10-13T12:18:24;101526.31;;;14.07
12126;BMP180;6126;57.908;16.490;2022-10-13T12:20:57;101522.78;;;14.08
12126;BMP180;6126;57.908;16.490;2022-10-13T12:23:25;101529.44;;;14.15
12126;BMP180;6126;57.908;16.490;2022-10-13T12:25:53;101510.06;;;14.17
12126;BMP180;6126;57.908;16.490;2022-10-13T12:28:29;101512.63;;;14.18
12126;BMP180;6126;57.908;16.490;2022-10-13T12:30:58;101512.56;;;14.20
12126;BMP180;6126;57.908;16.490;2022-10-13T12:33:33;101504.47;;;14.24
12126;BMP180;6126;57.908;16.490;2022-10-13T12:36:18;101502.34;;;14.32
12126;BMP180;6126;57.908;16.490;2022-10-13T12:38:53;101502.81;;;14.40
12126;BMP180;6126;57.908;16.490;2022-10-13T12:41:28;101499.22;;;14.43
12126;BMP180;6126;57.908;16.490;2022-10-13T12:43:54;101493.94;;;14.43
12126;BMP180;6126;57.908;16.490;2022-10-13T12:49:20;101487.19;;;14.37
12126;BMP180;6126;57.908;16.490;2022-10-13T12:51:49;101484.72;;;14.34
12126;BMP180;6126;57.908;16.490;2022-10-13T12:54:30;101484.72;;;14.34
12126;BMP180;6126;57.908;16.490;2022-10-13T12:57:05;101477.63;;;14.36
12126;BMP180;6126;57.908;16.490;2022-10-13T12:59:41;101474.84;;;14.39
12126;BMP180;6126;57.908;16.490;2022-10-13T13:02:34;101466.94;;;14.39
12126;BMP180;6126;57.908;16.490;2022-10-13T13:04:59;101458.28;;;14.37
12126;BMP180;6126;57.908;16.490;2022-10-13T13:07:34;101456.34;;;14.41
12126;BMP180;6126;57.908;16.490;2022-10-13T13:12:34;101448.16;;;14.47
12126;BMP180;6126;57.908;16.490;2022-10-13T13:17:53;101442.97;;;14.45
12126;BMP180;6126;57.908;16.490;2022-10-13T13:20:29;101440.56;;;14.41
12126;BMP180;6126;57.908;16.490;2022-10-13T13:22:56;101446.97;;;14.35
12126;BMP180;6126;57.908;16.490;2022-10-13T13:25:23;101448.16;;;14.28
12126;BMP180;6126;57.908;16.490;2022-10-13T13:27:50;101444.97;;;14.22
12126;BMP180;6126;57.908;16.490;2022-10-13T13:30:20;101440.06;;;14.15
12126;BMP180;6126;57.908;16.490;2022-10-13T13:32:46;101429.06;;;14.07
12126;BMP180;6126;57.908;16.490;2022-10-13T13:35:12;101422.25;;;14.03
12126;BMP180;6126;57.908;16.490;2022-10-13T13:37:44;101425.94;;;13.99
12126;BMP180;6126;57.908;16.490;2022-10-13T13:40:24;101425.25;;;13.94
12126;BMP180;6126;57.908;16.490;2022-10-13T13:42:51;101431.50;;;13.91
12126;BMP180;6126;57.908;16.490;2022-10-13T13:45:21;101424.59;;;13.89
12126;BMP180;6126;57.908;16.490;2022-10-13T13:47:47;101425.53;;;13.88
12126;BMP180;6126;57.908;16.490;2022-10-13T13:50:26;101420.44;;;13.85
12126;BMP180;6126;57.908;16.490;2022-10-13T13:52:53;101417.00;;;13.83
12126;BMP180;6126;57.908;16.490;2022-10-13T13:55:19;101417.94;;;13.82
12126;BMP180;6126;57.908;16.490;2022-10-13T13:57:45;101420.56;;;13.82
12126;BMP180;6126;57.908;16.490;2022-10-13T14:00:13;101411.81;;;13.82
12126;BMP180;6126;57.908;16.490;2022-10-13T14:02:40;101409.13;;;13.83
12126;BMP180;6126;57.908;16.490;2022-10-13T14:05:06;101406.50;;;13.83
12126;BMP180;6126;57.908;16.490;2022-10-13T14:07:32;101401.09;;;13.86
12126;BMP180;6126;57.908;16.490;2022-10-13T14:09:58;101400.22;;;13.87
12126;BMP180;6126;57.908;16.490;2022-10-13T14:12:24;101397.44;;;13.90
12126;BMP180;6126;57.908;16.490;2022-10-13T14:14:50;101400.81;;;13.92
12126;BMP180;6126;57.908;16.490;2022-10-13T14:17:15;101403.38;;;13.93
12126;BMP180;6126;57.908;16.490;2022-10-13T14:19:41;101398.06;;;13.95
12126;BMP180;6126;57.908;16.490;2022-10-13T14:22:07;101397.13;;;13.96
12126;BMP180;6126;57.908;16.490;2022-10-13T14:24:33;101390.09;;;13.96
12126;BMP180;6126;57.908;16.490;2022-10-13T14:26:59;101393.72;;;13.94
12126;BMP180;6126;57.908;16.490;2022-10-13T14:29:25;101392.19;;;13.90
12126;BMP180;6126;57.908;16.490;2022-10-13T14:31:51;101397.56;;;13.87
12126;BMP180;6126;57.908;16.490;2022-10-13T14:34:16;101383.78;;;13.82
12126;BMP180;6126;57.908;16.490;2022-10-13T14:36:43;101388.31;;;13.79
12126;BMP180;6126;57.908;16.490;2022-10-13T14:39:09;101384.19;;;13.73
12126;BMP180;6126;57.908;16.490;2022-10-13T14:41:35;101383.50;;;13.70
12126;BMP180;6126;57.908;16.490;2022-10-13T14:44:01;101386.31;;;13.65
12126;BMP180;6126;57.908;16.490;2022-10-13T14:46:26;101381.28;;;13.61
12126;BMP180;6126;57.908;16.490;2022-10-13T14:48:54;101388.44;;;13.57
12126;BMP180;6126;57.908;16.490;2022-10-13T14:51:21;101388.72;;;13.52
12126;BMP180;6126;57.908;16.490;2022-10-13T14:53:47;101379.34;;;13.46
12126;BMP180;6126;57.908;16.490;2022-10-13T14:56:21;101381.38;;;13.40
12126;BMP180;6126;57.908;16.490;2022-10-13T14:58:49;101379.81;;;13.36
12126;BMP180;6126;57.908;16.490;2022-10-13T15:01:17;101380.84;;;13.32
12126;BMP180;6126;57.908;16.490;2022-10-13T15:03:44;101373.97;;;13.29
12126;BMP180;6126;57.908;16.490;2022-10-13T15:06:16;101381.97;;;13.26
12126;BMP180;6126;57.908;16.490;2022-10-13T15:08:43;101369.94;;;13.23
12126;BMP180;6126;57.908;16.490;2022-10-13T15:11:10;101371.75;;;13.21
12126;BMP180;6126;57.908;16.490;2022-10-13T15:13:37;101372.75;;;13.18
12126;BMP180;6126;57.908;16.490;2022-10-13T15:16:04;101371.19;;;13.14
12126;BMP180;6126;57.908;16.490;2022-10-13T15:18:32;101376.53;;;13.11
12126;BMP180;6126;57.908;16.490;2022-10-13T15:20:58;101374.97;;;13.07
12126;BMP180;6126;57.908;16.490;2022-10-13T15:23:24;101372.50;;;13.04
12126;BMP180;6126;57.908;16.490;2022-10-13T15:25:53;101368.22;;;13.02
12126;BMP180;6126;57.908;16.490;2022-10-13T15:28:22;101367.47;;;12.98
12126;BMP180;6126;57.908;16.490;2022-10-13T15:30:48;101372.81;;;12.97
12126;BMP180;6126;57.908;16.490;2022-10-13T15:33:14;101370.25;;;12.95
12126;BMP180;6126;57.908;16.490;2022-10-13T15:35:40;101365.97;;;12.93
12126;BMP180;6126;57.908;16.490;2022-10-13T15:38:06;101373.09;;;12.91
12126;BMP180;6126;57.908;16.490;2022-10-13T15:40:39;101368.81;;;12.89
12126;BMP180;6126;57.908;16.490;2022-10-13T15:43:05;101373.28;;;12.87
12126;BMP180;6126;57.908;16.490;2022-10-13T15:45:31;101367.22;;;12.85
12126;BMP180;6126;57.908;16.490;2022-10-13T15:47:57;101362.09;;;12.82
12126;BMP180;6126;57.908;16.490;2022-10-13T15:50:24;101363.09;;;12.79
12126;BMP180;6126;57.908;16.490;2022-10-13T15:52:50;101368.47;;;12.76
12126;BMP180;6126;57.908;16.490;2022-10-13T15:55:17;101360.63;;;12.75
12126;BMP180;6126;57.908;16.490;2022-10-13T15:57:43;101357.22;;;12.73
12126;BMP180;6126;57.908;16.490;2022-10-13T16:00:12;101359.06;;;12.71
12126;BMP180;6126;57.908;16.490;2022-10-13T16:02:42;101360.88;;;12.69
12126;BMP180;6126;57.908;16.490;2022-10-13T16:05:11;101360.09;;;12.67
12126;BMP180;6126;57.908;16.490;2022-10-13T16:07:38;101354.06;;;12.65
12126;BMP180;6126;57.908;16.490;2022-10-13T16:10:07;101355.81;;;12.64
12126;BMP180;6126;57.908;16.490;2022-10-13T16:12:33;101352.34;;;12.64
12126;BMP180;6126;57.908;16.490;2022-10-13T16:14:59;101356.75;;;12.63
12126;BMP180;6126;57.908;16.490;2022-10-13T16:17:25;101355.91;;;12.63